Time;durP1;ratioP1;P1;durP2;ratioP2;P2;SDS_P1;SDS_P2;PMS_P1;PMS_P2;Temp;Humidity;BMP_temperature;BMP_pressure;BME280_temperature;BME280_humidity;BME280_pressure;Samples;Min_cycle;Max_cycle;Signal;HPM_P1;HPM_P2
2023/04/02 00:01:37;;;;;;;11.30;8.10;;;;;;;10.72;84.18;99695.23;107644;1251;109905;-70
2023/04/02 00:04:28;;;;;;;14.20;8.50;;;;;;;10.76;83.95;99704.36;107534;1250;109048;-69
2023/04/02 00:07:32;;;;;;;12.70;8.50;;;;;;;10.77;84.26;99702.83;107568;1254;108041;-69
2023/04/02 00:10:01;;;;;;;12.70;8.60;;;;;;;10.67;84.25;99711.39;107684;1251;96553;-69
2023/04/02 00:12:29;;;;;;;11.90;9.00;;;;;;;10.64;84.51;99716.14;107561;1252;96361;-69
2023/04/02 00:14:58;;;;;;;12.80;8.00;;;;;;;10.65;84.51;99720.08;107668;1249;108692;-69
2023/04/02 00:17:27;;;;;;;13.60;8.30;;;;;;;10.68;84.20;99719.40;107623;1250;109872;-70
2023/04/02 00:20:05;;;;;;;12.50;8.30;;;;;;;10.68;84.26;99716.84;107843;1248;108755;-71
2023/04/02 00:22:33;;;;;;;15.90;8.40;;;;;;;10.63;84.52;99712.73;107578;1251;96456;-69
2023/04/02 00:25:11;;;;;;;12.50;9.00;;;;;;;10.56;84.15;99712.51;107706;1250;96497;-70
2023/04/02 00:27:40;;;;;;;15.00;9.30;;;;;;;10.55;84.07;99707.12;107714;1250;108823;-70
2023/04/02 00:30:12;;;;;;;14.70;9.20;;;;;;;10.58;84.34;99707.84;107645;1253;108292;-70
2023/04/02 00:32:41;;;;;;;14.70;8.70;;;;;;;10.58;84.28;99706.92;107675;1250;108814;-69
2023/04/02 00:35:24;;;;;;;13.20;8.80;;;;;;;10.62;84.75;99699.92;107727;1250;96337;-70
2023/04/02 00:37:53;;;;;;;14.70;9.30;;;;;;;10.70;84.94;99695.34;107689;1253;96465;-70
2023/04/02 00:40:24;;;;;;;12.50;8.20;;;;;;;10.76;85.00;99692.33;107717;1250;110208;-70
2023/04/02 00:42:57;;;;;;;12.30;8.90;;;;;;;10.80;84.51;99685.44;107653;1256;109942;-69
2023/04/02 00:45:29;;;;;;;10.60;8.50;;;;;;;10.80;84.13;99686.39;107652;1250;108183;-69
2023/04/02 00:48:15;;;;;;;12.80;7.70;;;;;;;10.76;83.75;99687.82;107582;1254;96567;-70
2023/04/02 00:50:45;;;;;;;14.10;8.20;;;;;;;10.71;83.56;99688.89;107627;1250;97099;-67
2023/04/02 00:53:28;;;;;;;13.90;8.30;;;;;;;10.67;83.45;99685.20;107583;1250;110496;-69
2023/04/02 00:55:58;;;;;;;15.20;8.60;;;;;;;10.65;83.42;99683.63;107784;1250;109181;-70
2023/04/02 00:58:28;;;;;;;13.30;8.60;;;;;;;10.63;83.47;99687.17;107647;1253;107622;-70
2023/04/02 01:00:58;;;;;;;16.80;9.10;;;;;;;10.64;83.79;99682.45;107639;1250;96452;-70
2023/04/02 01:03:37;;;;;;;18.10;9.10;;;;;;;10.65;83.74;99688.46;107617;1253;96488;-71
2023/04/02 01:06:14;;;;;;;11.30;8.40;;;;;;;10.66;83.52;99686.61;107715;1251;109877;-70
2023/04/02 01:09:26;;;;;;;14.70;9.50;;;;;;;10.62;83.23;99692.69;107746;1251;110405;-70
2023/04/02 01:12:25;;;;;;;15.00;9.70;;;;;;;10.59;83.16;99695.52;107563;1251;108032;-70
2023/04/02 01:15:18;;;;;;;18.50;10.00;;;;;;;10.60;83.52;99700.63;107687;1256;96502;-69
2023/04/02 01:18:01;;;;;;;12.10;9.30;;;;;;;10.59;83.77;99704.15;107562;1251;96449;-69
2023/04/02 01:21:07;;;;;;;12.30;9.60;;;;;;;10.58;83.50;99709.98;107551;1253;109875;-69
2023/04/02 01:24:06;;;;;;;13.40;9.20;;;;;;;10.60;83.71;99708.75;107610;1252;108696;-70
2023/04/02 01:27:07;;;;;;;11.60;9.00;;;;;;;10.61;83.75;99711.65;107418;1249;107749;-73
2023/04/02 01:29:44;;;;;;;13.10;8.70;;;;;;;10.62;83.72;99708.12;107639;1255;96367;-70
2023/04/02 01:32:16;;;;;;;15.10;9.00;;;;;;;10.60;83.54;99707.30;107660;1257;97047;-70
2023/04/02 01:34:46;;;;;;;11.70;9.30;;;;;;;10.60;83.58;99706.54;107697;1251;110035;-71
2023/04/02 01:37:49;;;;;;;12.00;8.70;;;;;;;10.59;83.73;99708.51;107661;1254;109571;-69
2023/04/02 01:40:53;;;;;;;19.20;10.30;;;;;;;10.55;83.89;99713.04;107607;1251;107668;-68
2023/04/02 01:43:24;;;;;;;13.50;9.30;;;;;;;10.54;84.11;99719.05;107533;1256;96482;-69
2023/04/02 01:45:57;;;;;;;14.00;8.30;;;;;;;10.58;84.14;99721.73;107697;1256;96920;-68
2023/04/02 01:48:29;;;;;;;15.00;9.00;;;;;;;10.60;84.09;99724.35;107691;1251;109799;-69
2023/04/02 01:51:02;;;;;;;10.80;8.60;;;;;;;10.57;83.80;99724.48;107622;1250;110036;-71
2023/04/02 01:53:31;;;;;;;12.90;8.40;;;;;;;10.57;84.11;99729.65;107588;1250;107630;-69
2023/04/02 01:56:01;;;;;;;11.30;8.20;;;;;;;10.53;84.63;99728.13;107726;1251;96472;-70
2023/04/02 01:58:32;;;;;;;11.70;8.00;;;;;;;10.45;84.67;99729.44;107576;1253;97153;-69
2023/04/02 02:01:13;;;;;;;13.70;9.20;;;;;;;10.40;84.51;99730.55;107715;1251;109971;-68
2023/04/02 02:03:43;;;;;;;12.70;9.00;;;;;;;10.40;85.10;99729.84;107673;1256;108420;-68
2023/04/02 02:06:15;;;;;;;12.50;9.00;;;;;;;10.35;85.26;99727.40;107590;1256;107595;-67
2023/04/02 02:09:02;;;;;;;11.90;9.20;;;;;;;10.30;85.59;99727.55;107662;1256;96490;-68
2023/04/02 02:11:32;;;;;;;13.00;9.50;;;;;;;10.26;85.94;99723.90;107742;1251;96383;-69
2023/04/02 02:14:10;;;;;;;13.50;10.00;;;;;;;10.22;85.65;99728.15;107637;1251;109901;-70
2023/04/02 02:16:43;;;;;;;16.10;9.60;;;;;;;10.20;85.72;99727.59;107621;1253;109119;-70
2023/04/02 02:19:40;;;;;;;15.30;9.70;;;;;;;10.20;85.81;99730.42;107592;1251;108584;-70
2023/04/02 02:22:29;;;;;;;13.80;10.40;;;;;;;10.20;85.78;99730.31;107532;1256;97172;-71
2023/04/02 02:25:01;;;;;;;15.00;10.60;;;;;;;10.22;85.90;99731.80;107531;1250;97007;-68
2023/04/02 02:27:50;;;;;;;17.60;9.20;;;;;;;10.25;85.89;99734.23;107557;1250;110852;-67
2023/04/02 02:30:21;;;;;;;17.30;11.00;;;;;;;10.25;85.56;99735.48;107585;1252;108653;-70
2023/04/02 02:33:02;;;;;;;13.00;9.60;;;;;;;10.26;85.96;99737.87;107581;1251;108301;-68
2023/04/02 02:35:42;;;;;;;15.60;10.00;;;;;;;10.28;85.85;99741.24;107631;1251;96480;-69
2023/04/02 02:38:26;;;;;;;16.30;11.00;;;;;;;10.33;85.94;99747.52;107730;1252;96477;-70
2023/04/02 02:41:21;;;;;;;15.00;10.50;;;;;;;10.40;86.12;99746.88;107689;1257;110894;-69
2023/04/02 02:44:03;;;;;;;14.30;11.30;;;;;;;10.48;85.89;99748.64;107722;1251;109181;-69
2023/04/02 02:46:36;;;;;;;13.60;10.00;;;;;;;10.53;85.47;99749.66;107683;1250;106251;-70
2023/04/02 02:49:13;;;;;;;13.00;10.10;;;;;;;10.56;85.27;99749.54;107753;1257;96495;-69
2023/04/02 02:51:48;;;;;;;18.80;10.60;;;;;;;10.59;85.07;99751.30;107699;1251;96380;-69
2023/04/02 02:54:20;;;;;;;17.90;8.90;;;;;;;10.62;85.08;99755.09;107587;1254;109835;-70
2023/04/02 02:56:56;;;;;;;11.50;9.70;;;;;;;10.63;84.72;99752.90;107528;1250;109484;-68
2023/04/02 02:59:27;;;;;;;13.60;10.40;;;;;;;10.69;84.94;99760.56;107673;1257;107240;-67
2023/04/02 03:01:57;;;;;;;12.60;9.70;;;;;;;10.75;84.99;99764.02;107564;1253;97106;-70
2023/04/02 03:04:29;;;;;;;12.80;9.50;;;;;;;10.80;84.92;99762.02;107559;1257;96559;-69
2023/04/02 03:06:59;;;;;;;18.20;10.00;;;;;;;10.84;84.60;99759.51;107716;1250;109504;-70
2023/04/02 03:09:38;;;;;;;11.00;8.70;;;;;;;10.84;83.93;99756.29;107636;1253;109619;-69
2023/04/02 03:12:12;;;;;;;16.60;9.70;;;;;;;10.77;83.37;99758.07;107652;1251;107624;-72
2023/04/02 03:14:59;;;;;;;13.50;8.80;;;;;;;10.69;83.11;99758.58;107665;1250;96464;-71
2023/04/02 03:17:40;;;;;;;13.60;9.30;;;;;;;10.63;83.20;99760.98;107658;1251;96403;-69
2023/04/02 03:20:26;;;;;;;12.70;9.00;;;;;;;10.57;83.07;99759.06;107702;1251;110481;-68
2023/04/02 03:23:17;;;;;;;12.30;9.40;;;;;;;10.53;82.96;99761.66;107783;1251;109384;-69
2023/04/02 03:26:20;;;;;;;12.80;8.90;;;;;;;10.49;83.00;99761.67;107584;1252;106078;-70
2023/04/02 03:29:07;;;;;;;12.10;9.90;;;;;;;10.46;83.06;99761.46;107587;1251;96488;-70
2023/04/02 03:31:40;;;;;;;14.10;9.60;;;;;;;10.42;82.88;99762.95;107758;1251;99213;-70
2023/04/02 03:34:24;;;;;;;15.00;10.50;;;;;;;10.38;82.60;99762.61;107746;1251;109633;-71
2023/04/02 03:37:03;;;;;;;15.70;10.90;;;;;;;10.31;82.35;99769.73;107679;1251;109084;-68
2023/04/02 03:39:46;;;;;;;13.70;10.60;;;;;;;10.26;82.25;99769.42;107743;1251;105914;-67
2023/04/02 03:42:24;;;;;;;12.50;10.90;;;;;;;10.22;82.28;99772.73;107432;1250;96555;-68
2023/04/02 03:45:05;;;;;;;15.30;11.60;;;;;;;10.17;82.37;99775.33;107648;1254;96660;-69
2023/04/02 03:47:50;;;;;;;13.40;10.70;;;;;;;10.14;82.44;99775.09;107616;1251;109836;-68
2023/04/02 03:50:33;;;;;;;13.30;11.10;;;;;;;10.12;82.57;99779.08;107666;1254;110105;-69
2023/04/02 03:53:04;;;;;;;13.90;10.20;;;;;;;10.10;82.96;99780.55;107628;1251;107391;-69
2023/04/02 03:55:36;;;;;;;13.50;10.70;;;;;;;10.06;82.90;99782.63;107512;1250;96471;-68
2023/04/02 03:58:16;;;;;;;14.40;10.50;;;;;;;10.05;83.25;99784.97;107681;1250;96526;-69
2023/04/02 04:01:05;;;;;;;13.00;10.50;;;;;;;10.07;83.64;99789.09;107592;1251;110397;-68
2023/04/02 04:03:51;;;;;;;14.10;9.50;;;;;;;10.08;84.62;99785.94;107774;1251;109076;-71
2023/04/02 04:06:27;;;;;;;16.40;9.30;;;;;;;10.06;84.30;99788.98;107715;1251;108625;-70
2023/04/02 04:09:36;;;;;;;12.50;9.00;;;;;;;10.07;84.30;99793.40;107697;1254;96565;-68
2023/04/02 04:12:27;;;;;;;12.70;9.10;;;;;;;10.07;84.29;99798.43;107701;1251;96988;-69
2023/04/02 04:15:27;;;;;;;9.60;8.60;;;;;;;10.09;84.35;99795.71;107910;1251;110915;-71
2023/04/02 04:18:33;;;;;;;12.20;9.50;;;;;;;10.10;84.53;99793.95;107653;1251;109184;-70
2023/04/02 04:21:28;;;;;;;11.50;9.00;;;;;;;10.13;84.23;99800.09;107628;1251;107173;-72
2023/04/02 04:24:20;;;;;;;14.00;9.20;;;;;;;10.13;84.31;99801.92;107525;1251;98014;-69
2023/04/02 04:27:03;;;;;;;13.80;9.50;;;;;;;10.16;84.33;99804.40;107714;1251;97925;-69
2023/04/02 04:30:02;;;;;;;11.00;9.10;;;;;;;10.20;84.41;99804.96;107630;1251;111536;-69
2023/04/02 04:32:37;;;;;;;11.20;7.70;;;;;;;10.27;84.68;99809.61;107770;1251;110030;-69
2023/04/02 04:35:23;;;;;;;9.50;8.50;;;;;;;10.29;84.67;99814.91;107617;1251;109201;-69
2023/04/02 04:38:04;;;;;;;12.30;9.40;;;;;;;10.32;84.45;99822.58;107614;1250;97909;-70
2023/04/02 04:40:36;;;;;;;14.90;10.10;;;;;;;10.24;83.80;99823.77;107721;1251;97804;-70
2023/04/02 04:43:17;;;;;;;16.90;9.50;;;;;;;10.14;83.65;99828.14;107522;1251;110458;-69
2023/04/02 04:45:59;;;;;;;14.20;10.80;;;;;;;10.06;83.93;99835.04;107559;1251;109019;-70
2023/04/02 04:48:36;;;;;;;18.60;11.30;;;;;;;9.98;84.07;99837.63;107686;1251;107328;-68
2023/04/02 04:51:16;;;;;;;19.20;13.50;;;;;;;9.93;84.15;99839.20;107665;1251;97727;-73
2023/04/02 04:53:48;;;;;;;17.40;11.40;;;;;;;9.90;84.56;99838.26;107817;1251;98362;-70
2023/04/02 04:56:21;;;;;;;14.10;10.60;;;;;;;9.93;84.97;99840.61;107712;1251;110934;-69
2023/04/02 04:59:12;;;;;;;15.30;11.70;;;;;;;9.99;85.06;99841.29;107634;1253;109408;-71
2023/04/02 05:02:07;;;;;;;13.30;11.30;;;;;;;10.09;85.69;99839.59;107545;1251;108524;-69
2023/04/02 05:04:39;;;;;;;19.20;11.60;;;;;;;10.22;85.62;99844.01;107682;1250;97697;-69
2023/04/02 05:07:35;;;;;;;17.80;12.20;;;;;;;10.28;85.48;99844.16;107654;1251;98466;-67
2023/04/02 05:10:16;;;;;;;13.90;10.80;;;;;;;10.33;85.18;99844.44;107654;1251;110743;-69
2023/04/02 05:12:53;;;;;;;11.90;9.90;;;;;;;10.34;84.86;99842.98;107733;1251;108622;-69
2023/04/02 05:15:31;;;;;;;10.80;9.20;;;;;;;10.36;84.77;99850.66;107600;1250;106508;-72
2023/04/02 05:18:35;;;;;;;13.10;9.70;;;;;;;10.41;84.97;99851.77;107602;1256;98558;-68
2023/04/02 05:21:51;;;;;;;13.10;9.60;;;;;;;10.42;84.95;99849.20;107682;1251;97836;-68
2023/04/02 05:24:56;;;;;;;11.60;8.30;;;;;;;10.41;84.47;99848.34;107622;1251;111123;-69
2023/04/02 05:27:51;;;;;;;12.30;9.30;;;;;;;10.39;84.48;99849.00;107751;1254;109260;-68
2023/04/02 05:30:23;;;;;;;9.30;8.00;;;;;;;10.33;84.21;99849.13;107769;1257;106618;-70
2023/04/02 05:32:59;;;;;;;10.40;8.60;;;;;;;10.32;84.40;99851.04;107587;1252;97802;-70
2023/04/02 05:35:33;;;;;;;11.70;8.50;;;;;;;10.34;84.64;99855.09;107704;1251;97672;-68
2023/04/02 05:38:05;;;;;;;10.60;7.50;;;;;;;10.36;84.68;99858.03;107667;1251;111342;-68
2023/04/02 05:40:39;;;;;;;10.20;7.30;;;;;;;10.34;84.54;99861.03;107737;1251;109195;-68
2023/04/02 05:43:12;;;;;;;10.60;7.80;;;;;;;10.34;84.97;99863.19;107609;1251;108904;-69
2023/04/02 05:45:51;;;;;;;10.10;8.50;;;;;;;10.32;84.77;99864.11;107612;1251;96684;-70
2023/04/02 05:48:31;;;;;;;9.90;7.70;;;;;;;10.33;85.18;99862.41;107755;1251;98347;-70
2023/04/02 05:51:03;;;;;;;9.60;8.10;;;;;;;10.30;85.00;99863.23;107678;1251;111642;-71
2023/04/02 05:53:36;;;;;;;10.70;8.60;;;;;;;10.28;85.77;99867.41;107619;1251;108472;-69
2023/04/02 05:56:47;;;;;;;13.10;8.40;;;;;;;10.24;85.72;99872.43;107518;1251;107311;-71
2023/04/02 05:59:26;;;;;;;12.90;8.10;;;;;;;10.23;85.71;99872.52;107712;1251;97855;-70
2023/04/02 06:02:01;;;;;;;18.00;13.60;;;;;;;10.26;86.01;99873.02;107720;1251;98363;-71
2023/04/02 06:04:49;;;;;;;10.90;8.90;;;;;;;10.26;86.29;99879.23;107665;1250;112143;-70
2023/04/02 06:07:27;;;;;;;10.20;8.60;;;;;;;10.25;86.62;99878.25;107663;1251;110093;-69
2023/04/02 06:10:07;;;;;;;12.50;9.70;;;;;;;10.25;87.09;99880.74;107655;1251;108951;-71
2023/04/02 06:12:48;;;;;;;12.80;9.70;;;;;;;10.23;86.88;99882.66;107647;1249;98122;-74
2023/04/02 06:15:23;;;;;;;18.30;10.10;;;;;;;10.23;86.93;99883.10;107597;1250;97705;-71
2023/04/02 06:18:28;;;;;;;13.00;10.80;;;;;;;10.27;87.35;99883.66;107605;1253;111526;-70
2023/04/02 06:20:59;;;;;;;13.10;11.10;;;;;;;10.32;87.39;99883.33;107778;1250;110057;-70
2023/04/02 06:23:59;;;;;;;15.20;11.80;;;;;;;10.36;87.20;99884.70;107702;1251;108009;-70
2023/04/02 06:26:55;;;;;;;15.30;12.00;;;;;;;10.41;86.90;99889.76;107546;1251;97822;-68
2023/04/02 06:29:37;;;;;;;17.00;11.80;;;;;;;10.45;87.11;99888.25;107594;1250;97930;-67
2023/04/02 06:32:10;;;;;;;21.10;13.10;;;;;;;10.49;87.08;99887.53;107680;1251;111414;-69
2023/04/02 06:34:42;;;;;;;15.20;11.70;;;;;;;10.52;87.09;99889.94;107679;1250;109286;-70
2023/04/02 06:37:41;;;;;;;16.00;12.00;;;;;;;10.54;86.90;99893.34;107774;1251;107680;-71
2023/04/02 06:40:48;;;;;;;18.70;12.70;;;;;;;10.52;86.88;99891.21;107600;1251;97858;-69
2023/04/02 06:43:48;;;;;;;16.10;11.40;;;;;;;10.50;86.80;99894.83;107513;1250;97700;-70
2023/04/02 06:46:45;;;;;;;16.10;11.60;;;;;;;10.49;87.04;99897.55;107635;1250;111760;-70
2023/04/02 06:49:30;;;;;;;15.50;11.30;;;;;;;10.50;87.54;99902.13;107595;1251;109514;-70
2023/04/02 06:52:05;;;;;;;16.30;11.60;;;;;;;10.48;87.17;99904.29;107600;1250;106792;-71
2023/04/02 06:54:34;;;;;;;16.30;10.60;;;;;;;10.50;87.46;99907.00;107726;1251;97927;-74
2023/04/02 06:57:08;;;;;;;20.10;11.20;;;;;;;10.52;87.46;99908.75;107724;1255;97839;-70
2023/04/02 06:59:40;;;;;;;14.30;10.10;;;;;;;10.57;87.38;99910.38;107615;1251;109529;-72
2023/04/02 07:02:38;;;;;;;15.00;10.40;;;;;;;10.62;87.28;99915.05;107623;1250;110525;-73
2023/04/02 07:05:10;;;;;;;18.40;10.20;;;;;;;10.63;87.35;99919.94;107664;1253;107468;-70
2023/04/02 07:07:44;;;;;;;16.40;9.60;;;;;;;10.61;87.34;99924.86;107729;1250;97928;-72
2023/04/02 07:10:14;;;;;;;16.10;9.60;;;;;;;10.60;87.31;99928.92;107686;1251;97685;-74
2023/04/02 07:12:43;;;;;;;14.00;9.70;;;;;;;10.59;87.06;99930.92;107763;1253;111802;-70
2023/04/02 07:15:17;;;;;;;17.30;9.10;;;;;;;10.61;87.17;99936.15;107752;1251;109478;-70
2023/04/02 07:17:47;;;;;;;17.20;9.30;;;;;;;10.57;86.80;99935.52;107687;1250;108395;-70
2023/04/02 07:20:28;;;;;;;14.50;9.30;;;;;;;10.58;87.12;99937.75;107721;1250;97908;-69
2023/04/02 07:22:59;;;;;;;17.80;9.70;;;;;;;10.58;86.94;99941.29;107699;1256;97727;-72
2023/04/02 07:25:28;;;;;;;16.00;10.30;;;;;;;10.57;86.77;99945.30;107665;1250;111534;-72
2023/04/02 07:27:56;;;;;;;16.50;10.10;;;;;;;10.56;86.65;99948.66;107590;1251;108551;-69
2023/04/02 07:30:25;;;;;;;18.20;8.90;;;;;;;10.58;86.75;99950.64;107684;1253;107508;-71
2023/04/02 07:32:53;;;;;;;15.50;9.00;;;;;;;10.61;86.94;99950.31;107729;1250;97823;-70
2023/04/02 07:35:22;;;;;;;16.40;9.80;;;;;;;10.63;86.89;99956.21;107655;1256;97796;-72
2023/04/02 07:37:51;;;;;;;18.50;8.70;;;;;;;10.62;86.84;99959.33;107644;1251;111361;-69
2023/04/02 07:40:21;;;;;;;21.40;10.60;;;;;;;10.62;86.62;99964.05;107673;1250;109517;-70
2023/04/02 07:42:50;;;;;;;19.90;10.10;;;;;;;10.61;86.62;99962.01;107672;1250;107310;-70
2023/04/02 07:45:19;;;;;;;22.20;11.10;;;;;;;10.60;86.81;99964.79;107615;1251;97827;-69
2023/04/02 07:47:48;;;;;;;19.50;11.30;;;;;;;10.59;86.78;99964.65;107657;1251;97807;-71
2023/04/02 07:50:17;;;;;;;23.60;12.50;;;;;;;10.60;86.79;99970.71;107707;1250;110989;-71
2023/04/02 07:52:45;;;;;;;21.20;12.40;;;;;;;10.59;86.74;99972.88;107705;1255;109607;-71
2023/04/02 07:55:15;;;;;;;23.20;12.40;;;;;;;10.59;86.76;99972.61;107629;1251;107910;-70
2023/04/02 07:57:50;;;;;;;27.30;14.80;;;;;;;10.58;86.94;99976.98;107622;1251;97843;-69
2023/04/02 08:00:19;;;;;;;34.00;16.20;;;;;;;10.58;87.43;99978.83;106372;1250;1710602;-69
2023/04/02 08:02:48;;;;;;;29.10;17.20;;;;;;;10.54;87.28;99978.80;107765;1250;111214;-69
2023/04/02 08:05:16;;;;;;;31.80;18.10;;;;;;;10.53;87.67;99982.11;107783;1255;109010;-70
2023/04/02 08:07:56;;;;;;;31.60;19.30;;;;;;;10.51;87.62;99977.66;107728;1250;107853;-71
2023/04/02 08:10:24;;;;;;;39.80;20.40;;;;;;;10.50;87.62;99979.77;107631;1251;97865;-71
2023/04/02 08:12:52;;;;;;;37.60;20.10;;;;;;;10.49;87.94;99978.21;107776;1253;97885;-72
2023/04/02 08:15:21;;;;;;;39.10;20.00;;;;;;;10.48;87.90;99979.98;107606;1251;111791;-71
2023/04/02 08:17:50;;;;;;;37.90;20.40;;;;;;;10.49;88.29;99982.75;107683;1249;108709;-72
2023/04/02 08:20:21;;;;;;;43.30;25.20;;;;;;;10.48;88.22;99985.20;107719;1250;106650;-71
2023/04/02 08:22:49;;;;;;;36.60;21.70;;;;;;;10.47;88.31;99985.96;107535;1251;97873;-71
2023/04/02 08:25:18;;;;;;;41.40;22.90;;;;;;;10.49;88.23;99989.21;107707;1250;97829;-70
2023/04/02 08:27:47;;;;;;;42.10;23.00;;;;;;;10.50;88.15;99993.21;107665;1251;111915;-69
2023/04/02 08:30:16;;;;;;;41.60;22.70;;;;;;;10.52;88.51;99994.11;107591;1251;108765;-70
2023/04/02 08:32:45;;;;;;;46.70;22.00;;;;;;;10.53;88.57;99995.64;107556;1251;108248;-70
2023/04/02 08:35:15;;;;;;;40.30;23.00;;;;;;;10.53;88.67;99993.95;107474;1251;97756;-71
2023/04/02 08:37:44;;;;;;;42.50;24.50;;;;;;;10.51;88.42;99994.73;107708;1251;98307;-68
2023/04/02 08:40:26;;;;;;;41.00;23.30;;;;;;;10.52;88.99;99995.75;107563;1251;111620;-70
2023/04/02 08:43:02;;;;;;;38.30;22.00;;;;;;;10.51;89.04;99997.26;107669;1251;109221;-69
2023/04/02 08:46:06;;;;;;;38.80;22.00;;;;;;;10.50;89.20;99995.02;107618;1250;108477;-70
2023/04/02 08:48:38;;;;;;;36.10;20.80;;;;;;;10.46;89.10;100001.14;107520;1251;97813;-71
2023/04/02 08:51:33;;;;;;;38.70;21.20;;;;;;;10.47;89.29;100001.54;107650;1251;97708;-71
2023/04/02 08:54:32;;;;;;;35.30;21.60;;;;;;;10.49;89.47;99999.42;107768;1251;112497;-70
2023/04/02 08:57:15;;;;;;;38.30;22.30;;;;;;;10.53;89.48;100001.21;107505;1250;109257;-71
2023/04/02 08:59:44;;;;;;;38.20;22.20;;;;;;;10.55;89.41;100002.05;107664;1250;108872;-72
2023/04/02 09:02:36;;;;;;;34.50;21.00;;;;;;;10.57;89.24;100007.16;107719;1250;97867;-69
2023/04/02 09:05:14;;;;;;;36.10;22.30;;;;;;;10.61;89.08;100009.48;107596;1251;97817;-70
2023/04/02 09:07:42;;;;;;;36.70;21.70;;;;;;;10.63;89.02;100011.27;107767;1251;111174;-68
2023/04/02 09:10:24;;;;;;;32.80;22.40;;;;;;;10.62;88.90;100014.20;107727;1250;109180;-72
2023/04/02 09:12:53;;;;;;;34.10;20.10;;;;;;;10.66;89.04;100014.76;107733;1253;108168;-69
2023/04/02 09:15:30;;;;;;;32.30;21.20;;;;;;;10.68;89.10;100015.09;107708;1250;97863;-72
2023/04/02 09:18:10;;;;;;;33.50;20.20;;;;;;;10.70;88.95;100013.80;107748;1248;97733;-69
2023/04/02 09:20:39;;;;;;;31.80;20.80;;;;;;;10.77;89.04;100022.57;107656;1251;111539;-70
2023/04/02 09:23:28;;;;;;;28.80;19.70;;;;;;;10.84;88.90;100023.69;107705;1251;109738;-76
2023/04/02 09:25:56;;;;;;;27.80;18.80;;;;;;;10.88;88.66;100020.25;107555;1250;108511;-69
2023/04/02 09:28:32;;;;;;;32.70;18.70;;;;;;;10.93;88.46;100021.46;107593;1251;97833;-74
2023/04/02 09:31:23;;;;;;;28.40;19.10;;;;;;;10.96;88.21;100025.84;107719;1251;97941;-71
2023/04/02 09:33:53;;;;;;;33.70;19.30;;;;;;;11.02;88.04;100025.77;107606;1254;111418;-72
2023/04/02 09:36:38;;;;;;;29.60;19.60;;;;;;;11.07;87.65;100025.80;107738;1251;109066;-74
2023/04/02 09:39:22;;;;;;;29.90;17.70;;;;;;;11.12;87.78;100029.98;107609;1250;107589;-72
2023/04/02 09:41:56;;;;;;;31.50;17.90;;;;;;;11.16;87.39;100034.04;107587;1250;97802;-72
2023/04/02 09:44:33;;;;;;;28.60;17.80;;;;;;;11.24;87.62;100033.45;107664;1249;97700;-72
2023/04/02 09:47:24;;;;;;;26.40;18.10;;;;;;;11.27;87.08;100039.15;107571;1250;112147;-73
2023/04/02 09:49:52;;;;;;;27.30;17.90;;;;;;;11.30;86.94;100039.98;107585;1251;108697;-74
2023/04/02 09:52:28;;;;;;;30.00;17.30;;;;;;;11.35;86.79;100037.59;107694;1251;107240;-73
2023/04/02 09:55:19;;;;;;;23.80;16.10;;;;;;;11.36;86.18;100038.10;107721;1250;97836;-73
2023/04/02 09:57:50;;;;;;;23.60;16.30;;;;;;;11.36;85.85;100039.60;107664;1250;97903;-73
2023/04/02 10:00:22;;;;;;;30.10;16.60;;;;;;;11.38;85.76;100035.22;107581;1251;111274;-74
2023/04/02 10:03:05;;;;;;;21.50;14.80;;;;;;;11.36;85.63;100035.41;107510;1251;109625;-69
2023/04/02 10:05:35;;;;;;;21.60;15.30;;;;;;;11.36;85.37;100036.91;107647;1250;107448;-73
2023/04/02 10:08:18;;;;;;;20.60;14.50;;;;;;;11.38;85.44;100040.48;107575;1250;97858;-75
2023/04/02 10:10:51;;;;;;;20.70;14.50;;;;;;;11.43;85.49;100037.36;107629;1251;98067;-74
2023/04/02 10:13:52;;;;;;;18.90;12.90;;;;;;;11.46;85.15;100039.44;107533;1251;111341;-75
2023/04/02 10:16:42;;;;;;;19.70;13.50;;;;;;;11.47;84.66;100042.06;107598;1250;109859;-75
2023/04/02 10:19:24;;;;;;;19.10;13.80;;;;;;;11.47;84.35;100045.77;107734;1250;107643;-76
2023/04/02 10:21:55;;;;;;;18.80;12.90;;;;;;;11.47;83.97;100043.29;107598;1250;97853;-72
2023/04/02 10:24:27;;;;;;;22.80;13.50;;;;;;;11.52;84.35;100044.20;107609;1251;97764;-73
2023/04/02 10:27:32;;;;;;;16.70;12.10;;;;;;;11.63;84.46;100038.23;107594;1251;112008;-67
2023/04/02 10:30:23;;;;;;;18.70;12.70;;;;;;;11.77;83.46;100035.52;107582;1250;109724;-68
2023/04/02 10:33:22;;;;;;;17.50;12.10;;;;;;;11.84;82.95;100036.34;107599;1249;107672;-69
2023/04/02 10:36:05;;;;;;;21.80;12.10;;;;;;;11.96;83.05;100037.23;107599;1251;97832;-69
2023/04/02 10:38:41;;;;;;;18.70;12.40;;;;;;;12.12;83.04;100036.30;107712;1251;97820;-70
2023/04/02 10:41:31;;;;;;;19.30;12.90;;;;;;;12.25;81.40;100037.98;107609;1251;111660;-69
2023/04/02 10:44:18;;;;;;;18.20;12.60;;;;;;;12.32;79.95;100040.67;107770;1251;109203;-66
2023/04/02 10:47:06;;;;;;;19.30;12.20;;;;;;;12.33;79.95;100045.41;107587;1253;107875;-70
2023/04/02 10:49:50;;;;;;;17.00;12.40;;;;;;;12.41;79.74;100047.75;107669;1251;97833;-69
2023/04/02 10:52:49;;;;;;;18.40;12.60;;;;;;;12.46;79.28;100051.73;107707;1251;97809;-69
2023/04/02 10:55:30;;;;;;;17.90;11.60;;;;;;;12.52;79.75;100059.16;107629;1251;111927;-68
2023/04/02 10:58:05;;;;;;;16.90;12.70;;;;;;;12.63;79.74;100056.21;107560;1251;109190;-67
2023/04/02 11:00:40;;;;;;;19.60;11.80;;;;;;;12.68;79.78;100056.63;107665;1253;106938;-69
2023/04/02 11:03:36;;;;;;;25.50;12.70;;;;;;;12.80;79.59;100059.79;107488;1251;97821;-68
2023/04/02 11:06:16;;;;;;;19.00;11.50;;;;;;;12.98;79.42;100057.48;107615;1250;97844;-70
2023/04/02 11:08:48;;;;;;;15.90;11.50;;;;;;;13.21;79.74;100059.94;107620;1250;111983;-69
2023/04/02 11:11:23;;;;;;;16.50;11.40;;;;;;;13.49;79.76;100058.33;107625;1251;109814;-69
2023/04/02 11:13:57;;;;;;;18.40;10.70;;;;;;;13.78;78.56;100056.17;107584;1251;108244;-72
2023/04/02 11:16:26;;;;;;;15.60;10.90;;;;;;;13.98;76.66;100057.34;107559;1250;98003;-69
2023/04/02 11:19:14;;;;;;;13.60;10.10;;;;;;;14.13;75.48;100059.74;107672;1251;97722;-72
2023/04/02 11:22:02;;;;;;;17.80;10.60;;;;;;;14.27;75.82;100061.08;107734;1251;111961;-69
2023/04/02 11:24:43;;;;;;;14.90;10.50;;;;;;;14.46;75.08;100059.58;107682;1251;110987;-69
2023/04/02 11:27:11;;;;;;;14.60;10.40;;;;;;;14.50;73.14;100060.86;107552;1250;108590;-68
2023/04/02 11:29:51;;;;;;;15.70;10.70;;;;;;;14.48;72.67;100065.14;107549;1251;97961;-69
2023/04/02 11:32:25;;;;;;;16.70;11.30;;;;;;;14.43;73.47;100066.02;107602;1251;97855;-69
2023/04/02 11:34:54;;;;;;;14.60;10.50;;;;;;;14.46;72.98;100070.08;107665;1250;111562;-70
2023/04/02 11:37:41;;;;;;;16.40;10.40;;;;;;;14.43;72.58;100069.19;107666;1250;109418;-69
2023/04/02 11:40:09;;;;;;;15.10;11.20;;;;;;;14.42;72.19;100071.96;107654;1250;109320;-69
2023/04/02 11:42:43;;;;;;;15.60;10.40;;;;;;;14.41;72.23;100075.71;107510;1251;97833;-69
2023/04/02 11:45:21;;;;;;;;;;;;;;;14.41;71.98;100072.77;107742;1250;97746;-71
2023/04/02 11:48:25;;;;;;;12.30;9.00;;;;;;;14.39;72.17;100074.84;107642;1249;111283;-69
2023/04/02 11:50:54;;;;;;;13.70;9.60;;;;;;;14.34;72.14;100071.67;107684;1250;109682;-69
2023/04/02 11:53:35;;;;;;;15.10;9.80;;;;;;;14.33;72.00;100072.20;107659;1250;107568;-69
2023/04/02 11:56:16;;;;;;;13.10;9.20;;;;;;;14.27;71.52;100073.86;107609;1253;97812;-70
2023/04/02 11:59:13;;;;;;;12.70;8.90;;;;;;;14.15;71.52;100077.34;107647;1251;97939;-70
2023/04/02 12:02:08;;;;;;;12.10;8.60;;;;;;;14.06;72.14;100077.46;107587;1250;111762;-69
2023/04/02 12:05:06;;;;;;;10.30;8.10;;;;;;;14.06;72.27;100078.03;107648;1255;109252;-69